sensor_id;sensor_type;location;lat;lon;timestamp;P1;durP1;ratioP1;P2;durP2;ratioP2
71298;SDS011;59083;47.974;21.722;2023-05-02T00:00:13;11.85;;;6.07;;
71298;SDS011;59083;47.974;21.722;2023-05-02T00:03:15;12.63;;;5.97;;
71298;SDS011;59083;47.974;21.722;2023-05-02T00:06:16;11.27;;;6.13;;
71298;SDS011;59083;47.974;21.722;2023-05-02T00:09:18;14.98;;;6.68;;
71298;SDS011;59083;47.974;21.722;2023-05-02T00:12:19;13.00;;;6.32;;
71298;SDS011;59083;47.974;21.722;2023-05-02T00:15:21;11.73;;;6.20;;
71298;SDS011;59083;47.974;21.722;2023-05-02T00:18:22;12.48;;;5.95;;
71298;SDS011;59083;47.974;21.722;2023-05-02T00:21:24;11.00;;;5.87;;
71298;SDS011;59083;47.974;21.722;2023-05-02T00:24:25;12.18;;;5.43;;
71298;SDS011;59083;47.974;21.722;2023-05-02T00:27:27;13.35;;;6.03;;
71298;SDS011;59083;47.974;21.722;2023-05-02T00:30:29;14.98;;;6.55;;
71298;SDS011;59083;47.974;21.722;2023-05-02T00:33:30;14.43;;;5.97;;
71298;SDS011;59083;47.974;21.722;2023-05-02T00:36:31;13.93;;;6.20;;
71298;SDS011;59083;47.974;21.722;2023-05-02T00:39:33;14.32;;;6.10;;
71298;SDS011;59083;47.974;21.722;2023-05-02T00:42:35;13.82;;;5.95;;
71298;SDS011;59083;47.974;21.722;2023-05-02T00:45:37;10.07;;;5.45;;
71298;SDS011;59083;47.974;21.722;2023-05-02T00:48:40;13.98;;;5.80;;
71298;SDS011;59083;47.974;21.722;2023-05-02T00:51:41;12.50;;;5.50;;
71298;SDS011;59083;47.974;21.722;2023-05-02T00:54:43;12.45;;;5.82;;
71298;SDS011;59083;47.974;21.722;2023-05-02T00:57:44;10.43;;;5.80;;
71298;SDS011;59083;47.974;21.722;2023-05-02T01:07:13;13.53;;;5.73;;
71298;SDS011;59083;47.974;21.722;2023-05-02T01:13:32;12.00;;;5.82;;
71298;SDS011;59083;47.974;21.722;2023-05-02T01:16:38;13.52;;;6.00;;
71298;SDS011;59083;47.974;21.722;2023-05-02T01:19:46;10.63;;;5.45;;
71298;SDS011;59083;47.974;21.722;2023-05-02T01:22:53;11.97;;;5.63;;
71298;SDS011;59083;47.974;21.722;2023-05-02T01:26:18;11.77;;;5.60;;
71298;SDS011;59083;47.974;21.722;2023-05-02T01:29:36;10.10;;;5.70;;
71298;SDS011;59083;47.974;21.722;2023-05-02T01:32:40;11.55;;;5.43;;
71298;SDS011;59083;47.974;21.722;2023-05-02T01:35:45;13.55;;;5.85;;
71298;SDS011;59083;47.974;21.722;2023-05-02T01:38:51;12.20;;;6.07;;
71298;SDS011;59083;47.974;21.722;2023-05-02T01:41:54;10.30;;;5.65;;
71298;SDS011;59083;47.974;21.722;2023-05-02T01:44:57;14.38;;;5.55;;
71298;SDS011;59083;47.974;21.722;2023-05-02T01:48:00;14.07;;;5.68;;
71298;SDS011;59083;47.974;21.722;2023-05-02T01:51:04;12.10;;;6.00;;
71298;SDS011;59083;47.974;21.722;2023-05-02T01:54:07;12.50;;;6.20;;
71298;SDS011;59083;47.974;21.722;2023-05-02T01:57:10;11.20;;;5.72;;
71298;SDS011;59083;47.974;21.722;2023-05-02T02:00:13;9.77;;;5.43;;
71298;SDS011;59083;47.974;21.722;2023-05-02T02:03:18;11.07;;;5.47;;
71298;SDS011;59083;47.974;21.722;2023-05-02T02:06:20;13.13;;;5.70;;
71298;SDS011;59083;47.974;21.722;2023-05-02T02:09:22;11.30;;;5.40;;
71298;SDS011;59083;47.974;21.722;2023-05-02T02:15:30;13.27;;;5.05;;
71298;SDS011;59083;47.974;21.722;2023-05-02T02:18:35;9.73;;;5.22;;
71298;SDS011;59083;47.974;21.722;2023-05-02T02:21:39;11.38;;;5.40;;
71298;SDS011;59083;47.974;21.722;2023-05-02T02:24:42;12.33;;;5.53;;
71298;SDS011;59083;47.974;21.722;2023-05-02T02:27:46;12.35;;;5.47;;
71298;SDS011;59083;47.974;21.722;2023-05-02T02:30:48;11.35;;;5.45;;
71298;SDS011;59083;47.974;21.722;2023-05-02T02:33:50;13.75;;;5.40;;
71298;SDS011;59083;47.974;21.722;2023-05-02T02:36:56;12.77;;;5.60;;
71298;SDS011;59083;47.974;21.722;2023-05-02T02:40:15;11.63;;;5.87;;
71298;SDS011;59083;47.974;21.722;2023-05-02T02:43:38;12.85;;;6.20;;
71298;SDS011;59083;47.974;21.722;2023-05-02T02:46:59;11.55;;;5.80;;
71298;SDS011;59083;47.974;21.722;2023-05-02T02:53:08;10.60;;;5.60;;
71298;SDS011;59083;47.974;21.722;2023-05-02T02:56:19;12.20;;;6.30;;
71298;SDS011;59083;47.974;21.722;2023-05-02T02:59:31;10.23;;;5.90;;
71298;SDS011;59083;47.974;21.722;2023-05-02T03:02:35;10.52;;;5.43;;
71298;SDS011;59083;47.974;21.722;2023-05-02T03:05:37;12.85;;;5.80;;
71298;SDS011;59083;47.974;21.722;2023-05-02T03:08:39;19.05;;;6.18;;
71298;SDS011;59083;47.974;21.722;2023-05-02T03:11:42;13.77;;;6.00;;
71298;SDS011;59083;47.974;21.722;2023-05-02T03:14:46;11.63;;;5.85;;
71298;SDS011;59083;47.974;21.722;2023-05-02T03:17:48;16.67;;;7.05;;
71298;SDS011;59083;47.974;21.722;2023-05-02T03:20:49;21.67;;;11.82;;
71298;SDS011;59083;47.974;21.722;2023-05-02T03:23:51;12.55;;;6.10;;
71298;SDS011;59083;47.974;21.722;2023-05-02T03:26:53;11.93;;;5.87;;
71298;SDS011;59083;47.974;21.722;2023-05-02T03:29:59;12.65;;;5.97;;
71298;SDS011;59083;47.974;21.722;2023-05-02T03:33:00;12.23;;;5.90;;
71298;SDS011;59083;47.974;21.722;2023-05-02T03:36:05;14.02;;;6.00;;
71298;SDS011;59083;47.974;21.722;2023-05-02T03:39:07;11.20;;;5.30;;
71298;SDS011;59083;47.974;21.722;2023-05-02T03:42:09;13.73;;;6.17;;
71298;SDS011;59083;47.974;21.722;2023-05-02T03:45:10;14.32;;;5.55;;
71298;SDS011;59083;47.974;21.722;2023-05-02T03:48:12;14.02;;;6.45;;
71298;SDS011;59083;47.974;21.722;2023-05-02T03:51:13;13.00;;;6.20;;
71298;SDS011;59083;47.974;21.722;2023-05-02T03:54:16;12.52;;;5.70;;
71298;SDS011;59083;47.974;21.722;2023-05-02T03:57:18;13.27;;;5.67;;
71298;SDS011;59083;47.974;21.722;2023-05-02T04:00:20;11.65;;;5.75;;
71298;SDS011;59083;47.974;21.722;2023-05-02T04:03:22;10.90;;;5.90;;
71298;SDS011;59083;47.974;21.722;2023-05-02T04:06:23;10.18;;;5.45;;
71298;SDS011;59083;47.974;21.722;2023-05-02T04:09:26;9.50;;;5.68;;
71298;SDS011;59083;47.974;21.722;2023-05-02T04:12:27;10.67;;;5.80;;
71298;SDS011;59083;47.974;21.722;2023-05-02T04:15:30;11.30;;;6.50;;
71298;SDS011;59083;47.974;21.722;2023-05-02T04:18:32;13.18;;;6.07;;
71298;SDS011;59083;47.974;21.722;2023-05-02T04:21:35;12.88;;;5.97;;
71298;SDS011;59083;47.974;21.722;2023-05-02T04:24:37;13.50;;;6.53;;
71298;SDS011;59083;47.974;21.722;2023-05-02T04:27:38;12.53;;;5.87;;
71298;SDS011;59083;47.974;21.722;2023-05-02T04:30:41;15.05;;;6.07;;
71298;SDS011;59083;47.974;21.722;2023-05-02T04:33:43;14.07;;;6.47;;
71298;SDS011;59083;47.974;21.722;2023-05-02T04:36:46;11.68;;;6.05;;
71298;SDS011;59083;47.974;21.722;2023-05-02T04:39:48;11.35;;;6.32;;
71298;SDS011;59083;47.974;21.722;2023-05-02T04:42:50;15.63;;;6.53;;
71298;SDS011;59083;47.974;21.722;2023-05-02T04:45:52;12.80;;;5.85;;
71298;SDS011;59083;47.974;21.722;2023-05-02T04:48:54;14.00;;;6.10;;
71298;SDS011;59083;47.974;21.722;2023-05-02T04:51:56;12.52;;;6.03;;
71298;SDS011;59083;47.974;21.722;2023-05-02T04:54:57;16.08;;;6.45;;
71298;SDS011;59083;47.974;21.722;2023-05-02T04:57:59;18.20;;;6.50;;
71298;SDS011;59083;47.974;21.722;2023-05-02T05:01:01;13.65;;;6.97;;
71298;SDS011;59083;47.974;21.722;2023-05-02T05:04:02;11.30;;;6.45;;
71298;SDS011;59083;47.974;21.722;2023-05-02T05:07:04;11.80;;;6.30;;
71298;SDS011;59083;47.974;21.722;2023-05-02T05:10:06;13.38;;;6.12;;
71298;SDS011;59083;47.974;21.722;2023-05-02T05:13:11;13.07;;;6.70;;
71298;SDS011;59083;47.974;21.722;2023-05-02T05:16:14;15.73;;;6.65;;
71298;SDS011;59083;47.974;21.722;2023-05-02T05:19:15;14.68;;;6.90;;
71298;SDS011;59083;47.974;21.722;2023-05-02T05:22:17;15.55;;;7.30;;
71298;SDS011;59083;47.974;21.722;2023-05-02T05:25:19;12.90;;;7.22;;
71298;SDS011;59083;47.974;21.722;2023-05-02T05:28:21;15.20;;;7.47;;
71298;SDS011;59083;47.974;21.722;2023-05-02T05:31:23;20.50;;;7.53;;
71298;SDS011;59083;47.974;21.722;2023-05-02T05:34:26;13.10;;;6.55;;
71298;SDS011;59083;47.974;21.722;2023-05-02T05:37:27;12.15;;;6.68;;
71298;SDS011;59083;47.974;21.722;2023-05-02T05:40:29;13.95;;;6.60;;
71298;SDS011;59083;47.974;21.722;2023-05-02T05:43:31;12.57;;;6.37;;
71298;SDS011;59083;47.974;21.722;2023-05-02T05:46:32;12.32;;;6.30;;
71298;SDS011;59083;47.974;21.722;2023-05-02T05:49:34;21.50;;;10.80;;
71298;SDS011;59083;47.974;21.722;2023-05-02T05:52:36;10.23;;;6.50;;
71298;SDS011;59083;47.974;21.722;2023-05-02T05:55:38;12.63;;;6.20;;
71298;SDS011;59083;47.974;21.722;2023-05-02T05:58:39;9.53;;;5.93;;
71298;SDS011;59083;47.974;21.722;2023-05-02T06:01:42;13.73;;;8.40;;
71298;SDS011;59083;47.974;21.722;2023-05-02T06:04:44;10.30;;;6.40;;
71298;SDS011;59083;47.974;21.722;2023-05-02T06:07:47;13.68;;;6.30;;
71298;SDS011;59083;47.974;21.722;2023-05-02T06:10:48;12.73;;;6.55;;
71298;SDS011;59083;47.974;21.722;2023-05-02T06:13:52;11.63;;;6.50;;
71298;SDS011;59083;47.974;21.722;2023-05-02T06:16:53;18.40;;;7.00;;
71298;SDS011;59083;47.974;21.722;2023-05-02T06:19:55;13.62;;;6.90;;
71298;SDS011;59083;47.974;21.722;2023-05-02T06:22:56;12.75;;;6.75;;
71298;SDS011;59083;47.974;21.722;2023-05-02T06:25:58;12.18;;;6.55;;
71298;SDS011;59083;47.974;21.722;2023-05-02T06:29:00;12.83;;;6.70;;
71298;SDS011;59083;47.974;21.722;2023-05-02T06:32:02;12.35;;;6.75;;
71298;SDS011;59083;47.974;21.722;2023-05-02T06:35:04;11.45;;;6.95;;
71298;SDS011;59083;47.974;21.722;2023-05-02T06:38:05;11.23;;;6.62;;
71298;SDS011;59083;47.974;21.722;2023-05-02T06:41:11;11.52;;;6.47;;
71298;SDS011;59083;47.974;21.722;2023-05-02T06:44:13;11.90;;;6.87;;
71298;SDS011;59083;47.974;21.722;2023-05-02T06:47:15;12.73;;;6.80;;
71298;SDS011;59083;47.974;21.722;2023-05-02T06:50:16;12.82;;;7.32;;
71298;SDS011;59083;47.974;21.722;2023-05-02T06:53:17;12.07;;;6.75;;
71298;SDS011;59083;47.974;21.722;2023-05-02T06:56:18;15.52;;;6.75;;
71298;SDS011;59083;47.974;21.722;2023-05-02T06:59:20;13.43;;;6.73;;
71298;SDS011;59083;47.974;21.722;2023-05-02T07:02:21;15.60;;;8.85;;
71298;SDS011;59083;47.974;21.722;2023-05-02T07:05:22;14.50;;;7.07;;
71298;SDS011;59083;47.974;21.722;2023-05-02T07:08:23;11.45;;;6.72;;
71298;SDS011;59083;47.974;21.722;2023-05-02T07:11:25;13.77;;;7.10;;
71298;SDS011;59083;47.974;21.722;2023-05-02T07:14:27;10.13;;;6.17;;
71298;SDS011;59083;47.974;21.722;2023-05-02T07:17:29;10.77;;;6.65;;
71298;SDS011;59083;47.974;21.722;2023-05-02T07:20:30;13.25;;;6.60;;
71298;SDS011;59083;47.974;21.722;2023-05-02T07:23:32;12.55;;;6.45;;
71298;SDS011;59083;47.974;21.722;2023-05-02T07:26:33;11.10;;;6.65;;
71298;SDS011;59083;47.974;21.722;2023-05-02T07:29:34;17.80;;;12.50;;
71298;SDS011;59083;47.974;21.722;2023-05-02T07:32:36;15.35;;;6.50;;
71298;SDS011;59083;47.974;21.722;2023-05-02T07:35:37;12.40;;;6.10;;
71298;SDS011;59083;47.974;21.722;2023-05-02T07:38:38;12.40;;;5.93;;
71298;SDS011;59083;47.974;21.722;2023-05-02T07:41:39;10.00;;;6.03;;
71298;SDS011;59083;47.974;21.722;2023-05-02T07:44:40;12.47;;;5.77;;
71298;SDS011;59083;47.974;21.722;2023-05-02T07:47:42;9.60;;;5.72;;
71298;SDS011;59083;47.974;21.722;2023-05-02T07:50:43;9.60;;;5.80;;
71298;SDS011;59083;47.974;21.722;2023-05-02T07:53:44;8.90;;;5.53;;
71298;SDS011;59083;47.974;21.722;2023-05-02T07:56:46;10.82;;;5.43;;
71298;SDS011;59083;47.974;21.722;2023-05-02T07:59:47;9.97;;;5.60;;
71298;SDS011;59083;47.974;21.722;2023-05-02T08:02:48;15.73;;;5.55;;
71298;SDS011;59083;47.974;21.722;2023-05-02T08:05:50;12.73;;;5.25;;
71298;SDS011;59083;47.974;21.722;2023-05-02T08:08:51;8.93;;;5.55;;
71298;SDS011;59083;47.974;21.722;2023-05-02T08:11:52;10.50;;;5.50;;
71298;SDS011;59083;47.974;21.722;2023-05-02T08:14:53;12.23;;;5.53;;
71298;SDS011;59083;47.974;21.722;2023-05-02T08:17:54;9.85;;;5.22;;
71298;SDS011;59083;47.974;21.722;2023-05-02T08:20:56;8.55;;;5.35;;
71298;SDS011;59083;47.974;21.722;2023-05-02T08:23:58;11.30;;;5.60;;
71298;SDS011;59083;47.974;21.722;2023-05-02T08:27:00;9.07;;;5.40;;
71298;SDS011;59083;47.974;21.722;2023-05-02T08:30:03;9.47;;;5.13;;
71298;SDS011;59083;47.974;21.722;2023-05-02T08:33:04;9.30;;;4.82;;
71298;SDS011;59083;47.974;21.722;2023-05-02T08:36:09;11.25;;;6.30;;
71298;SDS011;59083;47.974;21.722;2023-05-02T08:39:14;10.05;;;5.45;;
71298;SDS011;59083;47.974;21.722;2023-05-02T08:42:16;8.63;;;5.22;;
71298;SDS011;59083;47.974;21.722;2023-05-02T08:45:18;12.93;;;5.30;;
71298;SDS011;59083;47.974;21.722;2023-05-02T08:48:20;8.25;;;5.07;;
71298;SDS011;59083;47.974;21.722;2023-05-02T08:51:22;8.57;;;4.85;;
71298;SDS011;59083;47.974;21.722;2023-05-02T08:54:24;9.02;;;4.93;;
71298;SDS011;59083;47.974;21.722;2023-05-02T08:57:29;11.00;;;5.35;;
71298;SDS011;59083;47.974;21.722;2023-05-02T09:00:38;12.17;;;4.73;;
71298;SDS011;59083;47.974;21.722;2023-05-02T09:03:43;8.85;;;4.57;;
71298;SDS011;59083;47.974;21.722;2023-05-02T09:06:46;12.98;;;4.65;;
71298;SDS011;59083;47.974;21.722;2023-05-02T09:09:47;9.50;;;4.70;;
71298;SDS011;59083;47.974;21.722;2023-05-02T09:12:48;9.65;;;4.60;;
71298;SDS011;59083;47.974;21.722;2023-05-02T09:15:56;7.77;;;4.40;;
71298;SDS011;59083;47.974;21.722;2023-05-02T09:18:59;7.53;;;4.07;;
71298;SDS011;59083;47.974;21.722;2023-05-02T09:22:01;8.75;;;3.87;;
71298;SDS011;59083;47.974;21.722;2023-05-02T09:25:03;11.57;;;4.55;;
71298;SDS011;59083;47.974;21.722;2023-05-02T09:28:07;10.07;;;4.40;;
71298;SDS011;59083;47.974;21.722;2023-05-02T09:31:09;9.00;;;4.37;;
71298;SDS011;59083;47.974;21.722;2023-05-02T09:34:12;8.48;;;4.20;;
71298;SDS011;59083;47.974;21.722;2023-05-02T09:37:34;8.15;;;4.03;;
71298;SDS011;59083;47.974;21.722;2023-05-02T09:40:36;13.05;;;4.03;;
71298;SDS011;59083;47.974;21.722;2023-05-02T09:43:38;8.63;;;3.80;;
71298;SDS011;59083;47.974;21.722;2023-05-02T09:46:40;9.27;;;3.87;;
71298;SDS011;59083;47.974;21.722;2023-05-02T09:49:43;7.53;;;4.25;;
71298;SDS011;59083;47.974;21.722;2023-05-02T09:52:59;6.62;;;3.97;;
71298;SDS011;59083;47.974;21.722;2023-05-02T09:56:03;9.50;;;4.18;;
71298;SDS011;59083;47.974;21.722;2023-05-02T09:59:11;7.30;;;3.70;;
71298;SDS011;59083;47.974;21.722;2023-05-02T10:02:14;9.13;;;3.60;;
71298;SDS011;59083;47.974;21.722;2023-05-02T10:05:16;7.78;;;3.67;;
71298;SDS011;59083;47.974;21.722;2023-05-02T10:08:18;10.13;;;3.85;;
71298;SDS011;59083;47.974;21.722;2023-05-02T10:11:20;6.20;;;3.53;;
71298;SDS011;59083;47.974;21.722;2023-05-02T10:14:22;7.18;;;3.55;;
71298;SDS011;59083;47.974;21.722;2023-05-02T10:17:26;8.07;;;3.40;;
71298;SDS011;59083;47.974;21.722;2023-05-02T10:20:34;8.70;;;3.65;;
71298;SDS011;59083;47.974;21.722;2023-05-02T10:23:41;12.95;;;3.75;;
71298;SDS011;59083;47.974;21.722;2023-05-02T10:26:46;9.30;;;3.62;;
71298;SDS011;59083;47.974;21.722;2023-05-02T10:29:48;9.23;;;3.53;;
71298;SDS011;59083;47.974;21.722;2023-05-02T10:32:51;5.90;;;3.50;;
71298;SDS011;59083;47.974;21.722;2023-05-02T10:35:54;7.05;;;3.33;;
71298;SDS011;59083;47.974;21.722;2023-05-02T10:38:55;7.07;;;3.33;;
71298;SDS011;59083;47.974;21.722;2023-05-02T10:41:57;7.93;;;3.45;;
71298;SDS011;59083;47.974;21.722;2023-05-02T10:45:01;6.87;;;3.30;;
71298;SDS011;59083;47.974;21.722;2023-05-02T10:48:19;7.67;;;3.27;;
71298;SDS011;59083;47.974;21.722;2023-05-02T10:51:28;7.43;;;3.22;;
71298;SDS011;59083;47.974;21.722;2023-05-02T10:54:32;12.77;;;3.42;;
71298;SDS011;59083;47.974;21.722;2023-05-02T10:57:33;9.40;;;3.37;;
71298;SDS011;59083;47.974;21.722;2023-05-02T11:00:34;6.47;;;3.10;;
71298;SDS011;59083;47.974;21.722;2023-05-02T11:03:52;6.40;;;3.00;;
71298;SDS011;59083;47.974;21.722;2023-05-02T11:20:17;6.97;;;3.30;;
71298;SDS011;59083;47.974;21.722;2023-05-02T11:23:19;5.95;;;3.10;;
71298;SDS011;59083;47.974;21.722;2023-05-02T11:26:22;7.28;;;3.37;;
71298;SDS011;59083;47.974;21.722;2023-05-02T11:35:53;11.40;;;3.20;;
71298;SDS011;59083;47.974;21.722;2023-05-02T11:38:56;6.30;;;3.00;;
71298;SDS011;59083;47.974;21.722;2023-05-02T11:41:57;7.78;;;3.12;;
71298;SDS011;59083;47.974;21.722;2023-05-02T11:44:59;5.97;;;3.17;;
71298;SDS011;59083;47.974;21.722;2023-05-02T11:48:01;7.03;;;3.10;;
71298;SDS011;59083;47.974;21.722;2023-05-02T11:51:04;6.20;;;3.10;;
71298;SDS011;59083;47.974;21.722;2023-05-02T11:54:06;7.18;;;3.30;;
71298;SDS011;59083;47.974;21.722;2023-05-02T11:57:08;6.03;;;2.95;;
71298;SDS011;59083;47.974;21.722;2023-05-02T12:00:09;5.75;;;3.20;;
71298;SDS011;59083;47.974;21.722;2023-05-02T12:06:31;6.75;;;3.45;;
71298;SDS011;59083;47.974;21.722;2023-05-02T12:09:33;7.25;;;3.50;;
71298;SDS011;59083;47.974;21.722;2023-05-02T12:12:34;8.77;;;3.53;;
71298;SDS011;59083;47.974;21.722;2023-05-02T12:15:36;6.12;;;2.97;;
71298;SDS011;59083;47.974;21.722;2023-05-02T12:18:38;6.03;;;3.03;;
71298;SDS011;59083;47.974;21.722;2023-05-02T12:21:39;6.22;;;3.15;;
71298;SDS011;59083;47.974;21.722;2023-05-02T12:24:41;7.72;;;3.33;;
71298;SDS011;59083;47.974;21.722;2023-05-02T12:27:57;6.60;;;3.05;;
71298;SDS011;59083;47.974;21.722;2023-05-02T12:30:59;7.07;;;2.55;;
71298;SDS011;59083;47.974;21.722;2023-05-02T12:34:10;6.80;;;2.90;;
71298;SDS011;59083;47.974;21.722;2023-05-02T12:37:12;5.68;;;2.90;;
71298;SDS011;59083;47.974;21.722;2023-05-02T12:40:14;5.43;;;2.90;;
71298;SDS011;59083;47.974;21.722;2023-05-02T12:43:16;8.30;;;3.30;;
71298;SDS011;59083;47.974;21.722;2023-05-02T12:46:18;6.28;;;2.80;;
71298;SDS011;59083;47.974;21.722;2023-05-02T12:49:20;7.20;;;3.20;;
71298;SDS011;59083;47.974;21.722;2023-05-02T12:55:59;9.55;;;2.92;;
71298;SDS011;59083;47.974;21.722;2023-05-02T12:59:02;5.75;;;2.60;;
71298;SDS011;59083;47.974;21.722;2023-05-02T13:02:05;6.30;;;3.10;;
71298;SDS011;59083;47.974;21.722;2023-05-02T13:05:14;7.47;;;3.33;;
71298;SDS011;59083;47.974;21.722;2023-05-02T13:08:18;6.10;;;2.90;;
71298;SDS011;59083;47.974;21.722;2023-05-02T13:11:20;8.32;;;3.00;;
71298;SDS011;59083;47.974;21.722;2023-05-02T13:14:21;5.82;;;2.83;;
71298;SDS011;59083;47.974;21.722;2023-05-02T13:17:23;8.27;;;3.05;;
71298;SDS011;59083;47.974;21.722;2023-05-02T13:20:24;6.47;;;3.00;;
71298;SDS011;59083;47.974;21.722;2023-05-02T13:23:25;6.60;;;2.80;;
71298;SDS011;59083;47.974;21.722;2023-05-02T13:26:26;7.82;;;2.70;;
71298;SDS011;59083;47.974;21.722;2023-05-02T13:29:28;8.20;;;2.60;;
71298;SDS011;59083;47.974;21.722;2023-05-02T13:32:29;6.47;;;3.05;;
71298;SDS011;59083;47.974;21.722;2023-05-02T13:35:30;5.90;;;2.70;;
71298;SDS011;59083;47.974;21.722;2023-05-02T13:38:31;5.20;;;2.62;;
71298;SDS011;59083;47.974;21.722;2023-05-02T13:41:33;6.03;;;2.53;;
71298;SDS011;59083;47.974;21.722;2023-05-02T13:44:35;8.13;;;2.78;;
71298;SDS011;59083;47.974;21.722;2023-05-02T13:47:37;6.30;;;2.80;;
71298;SDS011;59083;47.974;21.722;2023-05-02T13:50:38;6.20;;;2.60;;
71298;SDS011;59083;47.974;21.722;2023-05-02T13:53:39;5.45;;;2.80;;
71298;SDS011;59083;47.974;21.722;2023-05-02T13:56:40;6.80;;;2.70;;
71298;SDS011;59083;47.974;21.722;2023-05-02T13:59:42;10.63;;;2.72;;
71298;SDS011;59083;47.974;21.722;2023-05-02T14:02:43;6.70;;;2.70;;
71298;SDS011;59083;47.974;21.722;2023-05-02T14:05:48;6.60;;;2.70;;
71298;SDS011;59083;47.974;21.722;2023-05-02T14:08:49;5.40;;;2.67;;
71298;SDS011;59083;47.974;21.722;2023-05-02T14:11:53;6.68;;;2.70;;
71298;SDS011;59083;47.974;21.722;2023-05-02T14:14:55;6.95;;;3.10;;
71298;SDS011;59083;47.974;21.722;2023-05-02T14:17:56;5.43;;;2.75;;
71298;SDS011;59083;47.974;21.722;2023-05-02T14:20:57;5.43;;;2.70;;
71298;SDS011;59083;47.974;21.722;2023-05-02T14:24:00;5.82;;;2.70;;
71298;SDS011;59083;47.974;21.722;2023-05-02T14:27:01;7.62;;;2.90;;
71298;SDS011;59083;47.974;21.722;2023-05-02T14:30:02;6.30;;;2.78;;
71298;SDS011;59083;47.974;21.722;2023-05-02T14:33:04;5.80;;;2.60;;
71298;SDS011;59083;47.974;21.722;2023-05-02T14:36:05;5.33;;;2.67;;
71298;SDS011;59083;47.974;21.722;2023-05-02T14:39:06;5.03;;;2.50;;
71298;SDS011;59083;47.974;21.722;2023-05-02T14:42:08;5.25;;;2.62;;
71298;SDS011;59083;47.974;21.722;2023-05-02T14:45:09;5.47;;;2.40;;
71298;SDS011;59083;47.974;21.722;2023-05-02T14:48:10;7.72;;;2.50;;
71298;SDS011;59083;47.974;21.722;2023-05-02T14:51:13;6.67;;;2.77;;
71298;SDS011;59083;47.974;21.722;2023-05-02T14:54:15;5.97;;;2.70;;
71298;SDS011;59083;47.974;21.722;2023-05-02T14:57:16;5.72;;;2.53;;
71298;SDS011;59083;47.974;21.722;2023-05-02T15:00:17;7.28;;;3.12;;
71298;SDS011;59083;47.974;21.722;2023-05-02T15:03:19;7.40;;;2.53;;
71298;SDS011;59083;47.974;21.722;2023-05-02T15:06:20;5.27;;;2.53;;
71298;SDS011;59083;47.974;21.722;2023-05-02T15:09:21;5.20;;;2.70;;
71298;SDS011;59083;47.974;21.722;2023-05-02T15:12:26;7.45;;;3.08;;
71298;SDS011;59083;47.974;21.722;2023-05-02T15:15:27;7.47;;;2.62;;
71298;SDS011;59083;47.974;21.722;2023-05-02T15:18:28;4.93;;;2.70;;
71298;SDS011;59083;47.974;21.722;2023-05-02T15:21:29;4.93;;;2.57;;
71298;SDS011;59083;47.974;21.722;2023-05-02T15:24:31;7.72;;;2.70;;
71298;SDS011;59083;47.974;21.722;2023-05-02T15:27:33;8.15;;;2.70;;
71298;SDS011;59083;47.974;21.722;2023-05-02T15:30:34;5.97;;;2.70;;
71298;SDS011;59083;47.974;21.722;2023-05-02T15:33:36;7.03;;;2.55;;
71298;SDS011;59083;47.974;21.722;2023-05-02T15:36:38;5.87;;;2.30;;
71298;SDS011;59083;47.974;21.722;2023-05-02T15:39:40;7.28;;;2.95;;
71298;SDS011;59083;47.974;21.722;2023-05-02T15:42:41;7.00;;;2.50;;
71298;SDS011;59083;47.974;21.722;2023-05-02T15:45:42;9.00;;;2.85;;
71298;SDS011;59083;47.974;21.722;2023-05-02T15:48:44;6.65;;;2.47;;
71298;SDS011;59083;47.974;21.722;2023-05-02T15:51:45;6.23;;;2.50;;
71298;SDS011;59083;47.974;21.722;2023-05-02T15:54:47;5.12;;;2.47;;
71298;SDS011;59083;47.974;21.722;2023-05-02T15:57:48;6.37;;;2.78;;
71298;SDS011;59083;47.974;21.722;2023-05-02T16:00:51;6.87;;;2.62;;
71298;SDS011;59083;47.974;21.722;2023-05-02T16:03:53;5.10;;;2.55;;
71298;SDS011;59083;47.974;21.722;2023-05-02T16:06:54;6.27;;;2.70;;
71298;SDS011;59083;47.974;21.722;2023-05-02T16:09:55;8.48;;;2.80;;
71298;SDS011;59083;47.974;21.722;2023-05-02T16:12:56;6.43;;;3.03;;
71298;SDS011;59083;47.974;21.722;2023-05-02T16:15:58;6.53;;;2.58;;
71298;SDS011;59083;47.974;21.722;2023-05-02T16:18:59;7.45;;;3.08;;
71298;SDS011;59083;47.974;21.722;2023-05-02T16:22:00;6.63;;;2.70;;
71298;SDS011;59083;47.974;21.722;2023-05-02T16:25:02;7.05;;;2.87;;
71298;SDS011;59083;47.974;21.722;2023-05-02T16:28:03;5.78;;;2.47;;
71298;SDS011;59083;47.974;21.722;2023-05-02T16:31:05;8.68;;;2.90;;
71298;SDS011;59083;47.974;21.722;2023-05-02T16:34:07;6.80;;;2.95;;
71298;SDS011;59083;47.974;21.722;2023-05-02T16:37:08;7.77;;;2.70;;
71298;SDS011;59083;47.974;21.722;2023-05-02T16:40:10;9.98;;;3.10;;
71298;SDS011;59083;47.974;21.722;2023-05-02T16:43:12;4.87;;;2.55;;
71298;SDS011;59083;47.974;21.722;2023-05-02T16:46:13;7.85;;;3.08;;
71298;SDS011;59083;47.974;21.722;2023-05-02T16:49:14;7.55;;;3.00;;
71298;SDS011;59083;47.974;21.722;2023-05-02T16:52:16;6.53;;;2.77;;
71298;SDS011;59083;47.974;21.722;2023-05-02T16:55:17;12.35;;;3.47;;
71298;SDS011;59083;47.974;21.722;2023-05-02T16:58:18;11.77;;;3.55;;
71298;SDS011;59083;47.974;21.722;2023-05-02T17:01:20;6.18;;;2.90;;
71298;SDS011;59083;47.974;21.722;2023-05-02T17:04:23;6.85;;;2.87;;
71298;SDS011;59083;47.974;21.722;2023-05-02T17:07:24;6.37;;;2.93;;
71298;SDS011;59083;47.974;21.722;2023-05-02T17:10:25;5.53;;;2.70;;
71298;SDS011;59083;47.974;21.722;2023-05-02T17:13:26;5.53;;;3.17;;
71298;SDS011;59083;47.974;21.722;2023-05-02T17:16:28;12.80;;;3.15;;
71298;SDS011;59083;47.974;21.722;2023-05-02T17:19:29;6.80;;;3.45;;
71298;SDS011;59083;47.974;21.722;2023-05-02T17:22:31;9.10;;;3.20;;
71298;SDS011;59083;47.974;21.722;2023-05-02T17:25:33;9.48;;;3.60;;
71298;SDS011;59083;47.974;21.722;2023-05-02T17:28:35;8.98;;;3.50;;
71298;SDS011;59083;47.974;21.722;2023-05-02T17:31:36;7.00;;;3.50;;
71298;SDS011;59083;47.974;21.722;2023-05-02T17:34:38;8.93;;;3.55;;
71298;SDS011;59083;47.974;21.722;2023-05-02T17:37:39;7.23;;;3.03;;
71298;SDS011;59083;47.974;21.722;2023-05-02T17:40:40;6.72;;;3.42;;
71298;SDS011;59083;47.974;21.722;2023-05-02T17:43:41;8.38;;;3.35;;
71298;SDS011;59083;47.974;21.722;2023-05-02T17:46:43;8.75;;;4.00;;
71298;SDS011;59083;47.974;21.722;2023-05-02T17:49:44;9.63;;;3.83;;
71298;SDS011;59083;47.974;21.722;2023-05-02T17:52:47;7.37;;;3.57;;
71298;SDS011;59083;47.974;21.722;2023-05-02T17:55:48;12.70;;;3.92;;
71298;SDS011;59083;47.974;21.722;2023-05-02T17:58:49;9.45;;;3.62;;
71298;SDS011;59083;47.974;21.722;2023-05-02T18:01:51;8.98;;;3.85;;
71298;SDS011;59083;47.974;21.722;2023-05-02T18:04:53;8.82;;;3.30;;
71298;SDS011;59083;47.974;21.722;2023-05-02T18:07:54;7.90;;;3.40;;
71298;SDS011;59083;47.974;21.722;2023-05-02T18:10:56;7.47;;;3.50;;
71298;SDS011;59083;47.974;21.722;2023-05-02T18:13:58;9.07;;;3.75;;
71298;SDS011;59083;47.974;21.722;2023-05-02T18:17:03;11.98;;;4.37;;
71298;SDS011;59083;47.974;21.722;2023-05-02T18:20:05;13.65;;;5.90;;
71298;SDS011;59083;47.974;21.722;2023-05-02T18:23:06;27.03;;;12.20;;
71298;SDS011;59083;47.974;21.722;2023-05-02T18:26:11;29.27;;;10.30;;
71298;SDS011;59083;47.974;21.722;2023-05-02T18:29:13;27.67;;;9.32;;
71298;SDS011;59083;47.974;21.722;2023-05-02T18:32:14;23.83;;;9.27;;
71298;SDS011;59083;47.974;21.722;2023-05-02T18:35:15;21.55;;;8.40;;
71298;SDS011;59083;47.974;21.722;2023-05-02T18:38:17;16.03;;;7.27;;